Time;durP1;ratioP1;P1;durP2;ratioP2;P2;SDS_P1;SDS_P2;PMS_P1;PMS_P2;Temp;Humidity;BMP_temperature;BMP_pressure;BME280_temperature;BME280_humidity;BME280_pressure;Samples;Min_cycle;Max_cycle;Signal;HPM_P1;HPM_P2
2023/06/13 00:02:14;;;;;;;1.35;0.30;;;16.70;66.10;;;;;;5088780;28;20385;-75
2023/06/13 00:04:43;;;;;;;0.22;0.22;;;16.80;67.60;;;;;;5088165;28;20098;-76
2023/06/13 00:07:09;;;;;;;0.20;0.20;;;16.80;67.40;;;;;;5088394;28;20091;-76
2023/06/13 00:09:35;;;;;;;;;;;16.70;68.50;;;;;;5088557;28;20075;-76
2023/06/13 00:12:02;;;;;;;0.43;0.43;;;16.60;66.80;;;;;;5088274;28;19977;-76
2023/06/13 00:14:28;;;;;;;0.45;0.45;;;16.60;67.20;;;;;;5072065;28;20633;-76
2023/06/13 00:16:54;;;;;;;1.00;0.30;;;16.60;68.50;;;;;;5071537;28;20066;-75
2023/06/13 00:19:20;;;;;;;0.20;0.20;;;16.50;67.90;;;;;;5071851;28;20120;-75
2023/06/13 00:21:46;;;;;;;0.20;0.20;;;16.50;70.00;;;;;;5088191;28;20102;-75
2023/06/13 00:24:12;;;;;;;;;;;16.50;68.70;;;;;;5075183;28;20087;-76
2023/06/13 00:26:38;;;;;;;0.30;0.30;;;16.50;67.00;;;;;;5094278;28;19927;-75
2023/06/13 00:29:03;;;;;;;;;;;16.50;68.80;;;;;;5095312;28;20036;-76
2023/06/13 00:31:29;;;;;;;0.40;0.40;;;16.50;68.20;;;;;;5095633;28;19915;-75
2023/06/13 00:33:55;;;;;;;;;;;16.50;68.20;;;;;;5094873;28;20036;-74
2023/06/13 00:36:21;;;;;;;0.20;0.20;;;16.50;67.90;;;;;;5094975;28;19927;-74
2023/06/13 00:38:49;;;;;;;0.30;0.30;;;16.50;69.20;;;;;;5094415;28;20084;-74
2023/06/13 00:41:15;;;;;;;0.85;0.63;;;16.50;67.00;;;;;;5094564;28;20105;-74
2023/06/13 00:43:40;;;;;;;;;;;16.50;66.80;;;;;;5078196;28;20465;-74
2023/06/13 00:46:06;;;;;;;0.22;0.22;;;16.50;68.80;;;;;;5061063;28;19967;-74
2023/06/13 00:48:33;;;;;;;;;;;16.50;68.00;;;;;;5078487;28;20257;-74
2023/06/13 00:51:01;;;;;;;0.25;0.25;;;16.50;65.80;;;;;;5095540;28;19920;-74
2023/06/13 00:53:29;;;;;;;0.43;0.43;;;16.40;68.90;;;;;;5109591;28;20438;-74
2023/06/13 00:55:56;;;;;;;0.20;0.20;;;16.40;67.70;;;;;;5094553;28;20396;-73
2023/06/13 00:58:22;;;;;;;0.20;0.20;;;16.50;69.40;;;;;;5077683;28;20054;-74
2023/06/13 01:00:49;;;;;;;0.30;0.30;;;16.40;67.80;;;;;;5094027;28;20086;-74
2023/06/13 01:03:15;;;;;;;0.40;0.40;;;16.30;71.00;;;;;;5094742;28;20105;-74
2023/06/13 01:05:44;;;;;;;;;;;16.30;69.00;;;;;;5094565;28;20490;-75
2023/06/13 01:08:13;;;;;;;0.30;0.30;;;16.30;68.90;;;;;;5094460;28;19916;-75
2023/06/13 01:10:41;;;;;;;0.30;0.30;;;16.30;71.70;;;;;;5093894;28;20097;-75
2023/06/13 01:13:13;;;;;;;0.30;0.30;;;16.30;69.80;;;;;;5094316;28;20040;-75
2023/06/13 01:15:52;;;;;;;0.40;0.40;;;16.20;69.40;;;;;;5077134;28;20127;-74
2023/06/13 01:18:24;;;;;;;0.40;0.40;;;16.20;69.80;;;;;;5077543;28;20054;-74
2023/06/13 01:20:56;;;;;;;0.30;0.30;;;16.20;68.60;;;;;;5094006;28;20485;-75
2023/06/13 01:23:49;;;;;;;0.30;0.30;;;16.20;68.80;;;;;;5077320;28;20086;-75
2023/06/13 01:26:46;;;;;;;0.38;0.38;;;16.10;70.30;;;;;;5074029;28;20490;-75
2023/06/13 01:29:14;;;;;;;0.20;0.20;;;16.10;69.30;;;;;;5074316;28;20147;-75
2023/06/13 01:31:42;;;;;;;0.65;0.65;;;16.00;68.90;;;;;;5073463;28;20046;-74
2023/06/13 01:34:08;;;;;;;0.30;0.30;;;15.90;69.20;;;;;;5064288;28;20048;-74
2023/06/13 01:36:35;;;;;;;0.22;0.22;;;15.90;72.00;;;;;;5074132;28;20127;-75
2023/06/13 01:39:00;;;;;;;0.30;0.30;;;15.90;73.00;;;;;;5090878;28;20126;-75
2023/06/13 01:41:26;;;;;;;;;;;15.80;71.80;;;;;;5091591;28;20454;-75
2023/06/13 01:43:52;;;;;;;0.45;0.45;;;15.80;71.30;;;;;;5091028;28;19934;-75
2023/06/13 01:46:17;;;;;;;0.30;0.30;;;15.70;70.40;;;;;;5091254;28;20039;-75
2023/06/13 01:48:54;;;;;;;;;;;15.70;70.70;;;;;;5091301;28;20048;-75
2023/06/13 01:51:31;;;;;;;0.40;0.40;;;15.60;72.70;;;;;;5091851;28;20340;-75
2023/06/13 01:54:03;;;;;;;0.60;0.60;;;15.60;73.70;;;;;;5074407;28;20114;-74
2023/06/13 01:56:32;;;;;;;0.28;0.28;;;15.50;72.20;;;;;;5091149;28;20043;-75
2023/06/13 01:59:01;;;;;;;0.20;0.20;;;15.40;73.40;;;;;;5090699;28;20390;-75
2023/06/13 02:01:29;;;;;;;0.40;0.40;;;15.30;72.10;;;;;;5090828;28;20393;-75
2023/06/13 02:03:55;;;;;;;0.40;0.40;;;15.30;75.50;;;;;;5090259;28;20481;-75
2023/06/13 02:06:21;;;;;;;0.30;0.30;;;15.20;76.40;;;;;;5091522;28;20395;-74
2023/06/13 02:08:46;;;;;;;;;;;15.10;75.50;;;;;;5075047;28;20036;-74
2023/06/13 02:11:12;;;;;;;0.30;0.30;;;15.00;76.00;;;;;;5091022;28;19919;-74
2023/06/13 02:13:38;;;;;;;;;;;14.80;75.70;;;;;;5091351;28;20047;-74
2023/06/13 02:16:04;;;;;;;0.63;0.45;;;14.80;75.60;;;;;;5090299;28;20262;-75
2023/06/13 02:18:30;;;;;;;0.40;0.40;;;14.60;76.50;;;;;;5073807;28;20035;-75
2023/06/13 02:20:56;;;;;;;;;;;14.60;77.30;;;;;;5073806;28;20054;-74
2023/06/13 02:23:23;;;;;;;0.40;0.40;;;14.50;76.50;;;;;;5090283;28;19920;-75
2023/06/13 02:25:51;;;;;;;0.38;0.30;;;14.40;78.70;;;;;;5085905;28;20060;-74
2023/06/13 02:28:17;;;;;;;1.00;0.85;;;14.30;80.50;;;;;;5069842;28;20047;-74
2023/06/13 02:30:44;;;;;;;0.40;0.40;;;14.30;77.00;;;;;;5069540;28;20127;-74
2023/06/13 02:33:13;;;;;;;0.30;0.30;;;14.20;78.50;;;;;;5069766;28;20478;-75
2023/06/13 02:35:39;;;;;;;0.43;0.43;;;14.20;77.90;;;;;;5089499;28;20104;-75
2023/06/13 02:38:06;;;;;;;;;;;14.20;78.10;;;;;;5090165;28;20427;-75
2023/06/13 02:40:33;;;;;;;0.35;0.35;;;14.20;81.70;;;;;;5073968;28;20006;-75
2023/06/13 02:43:00;;;;;;;0.40;0.40;;;14.10;80.20;;;;;;5089634;28;20048;-74
2023/06/13 02:45:26;;;;;;;0.40;0.40;;;14.10;80.10;;;;;;5072791;28;20044;-74
2023/06/13 02:47:52;;;;;;;;;;;14.10;77.30;;;;;;5071672;28;20220;-75
2023/06/13 02:50:18;;;;;;;0.50;0.50;;;14.10;80.30;;;;;;5089925;28;19920;-74
2023/06/13 02:52:43;;;;;;;0.40;0.40;;;14.10;80.80;;;;;;5089201;28;20040;-74
2023/06/13 02:55:10;;;;;;;0.20;0.20;;;14.10;78.40;;;;;;5089439;28;20039;-74
2023/06/13 02:57:37;;;;;;;0.40;0.40;;;14.00;78.00;;;;;;5072195;28;20047;-74
2023/06/13 03:00:08;;;;;;;0.52;0.52;;;14.00;79.00;;;;;;5088379;28;20095;-74
2023/06/13 03:02:36;;;;;;;0.40;0.40;;;14.00;81.80;;;;;;5088850;28;20405;-73
2023/06/13 03:05:07;;;;;;;0.30;0.30;;;14.00;80.20;;;;;;5071175;28;20044;-74
2023/06/13 03:07:33;;;;;;;0.50;0.50;;;14.10;82.60;;;;;;5088442;28;20044;-73
2023/06/13 03:10:00;;;;;;;;;;;14.10;78.20;;;;;;5071804;28;20046;-75
2023/06/13 03:12:25;;;;;;;0.35;0.35;;;14.20;76.70;;;;;;5089505;28;20221;-75
2023/06/13 03:14:51;;;;;;;;;;;14.20;75.60;;;;;;5089078;28;20047;-75
2023/06/13 03:17:16;;;;;;;0.40;0.40;;;14.30;77.10;;;;;;5089238;28;20784;-75
2023/06/13 03:19:42;;;;;;;;;;;14.30;79.60;;;;;;5072977;28;20079;-75
2023/06/13 03:22:13;;;;;;;0.30;0.30;;;14.40;78.30;;;;;;5089825;28;19977;-74
2023/06/13 03:24:40;;;;;;;0.30;0.30;;;14.40;79.90;;;;;;5088757;28;20131;-75
2023/06/13 03:27:06;;;;;;;0.30;0.30;;;14.40;77.00;;;;;;5068571;28;20067;-75
2023/06/13 03:29:32;;;;;;;0.73;0.73;;;14.50;78.40;;;;;;5068620;28;20056;-75
2023/06/13 03:31:58;;;;;;;;;;;14.50;77.00;;;;;;5102915;28;20052;-74
2023/06/13 03:34:28;;;;;;;0.40;0.40;;;14.50;77.10;;;;;;5061332;28;20075;-75
2023/06/13 03:36:54;;;;;;;0.30;0.30;;;14.50;75.90;;;;;;5072946;28;20039;-75
2023/06/13 03:39:19;;;;;;;;;;;14.50;77.20;;;;;;5089482;28;20093;-75
2023/06/13 03:41:45;;;;;;;0.88;0.77;;;14.50;77.20;;;;;;5071779;28;20266;-75
2023/06/13 03:44:11;;;;;;;0.30;0.30;;;14.60;76.10;;;;;;5089163;28;20470;-74
2023/06/13 03:46:37;;;;;;;;;;;14.60;76.20;;;;;;5072996;28;20040;-74
2023/06/13 03:49:02;;;;;;;0.43;0.43;;;14.60;75.30;;;;;;5088376;28;19993;-74
2023/06/13 03:51:28;;;;;;;0.20;0.20;;;14.70;76.10;;;;;;5094224;28;20038;-74
2023/06/13 03:53:54;;;;;;;0.40;0.40;;;14.70;75.30;;;;;;5098929;28;20043;-74
2023/06/13 03:56:20;;;;;;;0.50;0.50;;;14.70;75.40;;;;;;5088806;28;20048;-74
2023/06/13 03:58:45;;;;;;;;;;;14.70;74.30;;;;;;5088287;28;20040;-74
2023/06/13 04:01:11;;;;;;;0.40;0.40;;;14.80;75.10;;;;;;5071487;28;19916;-74
2023/06/13 04:03:39;;;;;;;;;;;14.80;74.10;;;;;;5088901;28;20081;-74
2023/06/13 04:06:08;;;;;;;0.73;0.73;;;14.80;75.40;;;;;;5088190;28;19916;-74
2023/06/13 04:08:38;;;;;;;0.30;0.30;;;14.90;75.40;;;;;;5071579;28;20039;-74
2023/06/13 04:11:04;;;;;;;0.28;0.28;;;14.90;76.00;;;;;;5071812;28;20044;-74
2023/06/13 04:13:30;;;;;;;;;;;14.90;77.10;;;;;;5088936;28;20398;-74
2023/06/13 04:15:55;;;;;;;0.60;0.60;;;14.90;76.50;;;;;;5070814;28;19920;-74
2023/06/13 04:18:23;;;;;;;;;;;14.90;76.70;;;;;;5071838;28;20048;-75
2023/06/13 04:20:51;;;;;;;2.10;0.75;;;14.90;77.40;;;;;;5088039;28;20038;-74
2023/06/13 04:23:17;;;;;;;0.22;0.22;;;14.90;78.90;;;;;;5071538;28;20135;-74
2023/06/13 04:25:43;;;;;;;0.45;0.45;;;14.90;77.50;;;;;;5087951;28;20060;-74
2023/06/13 04:28:10;;;;;;;;;;;14.90;79.10;;;;;;5122880;28;20044;-74
2023/06/13 04:30:36;;;;;;;0.32;0.32;;;14.90;78.90;;;;;;5089341;28;20347;-75
2023/06/13 04:33:05;;;;;;;0.40;0.40;;;14.90;79.70;;;;;;5105935;28;20470;-74
2023/06/13 04:35:37;;;;;;;0.30;0.30;;;14.90;80.10;;;;;;5072099;28;20551;-74
2023/06/13 04:38:04;;;;;;;0.30;0.30;;;14.90;80.80;;;;;;5087727;28;20050;-74
2023/06/13 04:40:31;;;;;;;0.30;0.30;;;14.90;80.70;;;;;;5071704;28;20048;-76
2023/06/13 04:42:58;;;;;;;0.30;0.30;;;14.90;81.20;;;;;;5071252;28;20044;-75
2023/06/13 04:45:25;;;;;;;7.18;0.55;;;14.90;80.40;;;;;;5089234;28;20032;-75
2023/06/13 04:47:51;;;;;;;0.40;0.40;;;15.00;80.20;;;;;;5090050;28;20043;-75
2023/06/13 04:50:19;;;;;;;0.30;0.30;;;15.00;80.60;;;;;;5088557;28;20054;-73
2023/06/13 04:52:45;;;;;;;0.22;0.22;;;15.00;81.00;;;;;;5087534;28;20051;-75
2023/06/13 04:55:11;;;;;;;0.30;0.30;;;15.10;82.50;;;;;;5068165;28;20041;-76
2023/06/13 04:57:37;;;;;;;;;;;15.20;82.10;;;;;;5051712;28;20106;-76
2023/06/13 05:00:07;;;;;;;0.20;0.20;;;15.30;81.90;;;;;;5067751;28;20300;-76
2023/06/13 05:02:35;;;;;;;0.25;0.25;;;15.30;81.90;;;;;;5051385;28;20053;-75
2023/06/13 05:05:04;;;;;;;0.30;0.30;;;15.40;83.60;;;;;;5051409;28;20177;-75
2023/06/13 05:07:30;;;;;;;0.50;0.50;;;15.50;84.00;;;;;;5063786;28;20122;-76
2023/06/13 05:09:56;;;;;;;0.45;0.45;;;15.60;84.80;;;;;;5070940;28;20040;-76
2023/06/13 05:12:22;;;;;;;;;;;15.70;86.30;;;;;;5092228;28;20104;-75
2023/06/13 05:14:48;;;;;;;0.30;0.30;;;15.80;84.80;;;;;;5092061;28;19915;-76
2023/06/13 05:17:14;;;;;;;;;;;15.90;85.80;;;;;;5058406;28;20553;-76
2023/06/13 05:19:40;;;;;;;0.50;0.50;;;16.00;84.10;;;;;;5091685;28;20002;-76
2023/06/13 05:22:06;;;;;;;;;;;16.10;82.10;;;;;;5074893;28;20036;-75
2023/06/13 05:24:32;;;;;;;0.30;0.30;;;16.20;80.40;;;;;;5074596;28;19924;-76
2023/06/13 05:27:01;;;;;;;0.20;0.20;;;16.20;79.90;;;;;;5087700;28;20048;-73
2023/06/13 05:29:27;;;;;;;0.30;0.30;;;16.40;78.40;;;;;;5071134;28;20047;-76
2023/06/13 05:31:53;;;;;;;;;;;16.40;76.50;;;;;;5055012;28;20064;-74
2023/06/13 05:34:19;;;;;;;0.65;0.65;;;16.60;75.20;;;;;;5079723;28;20463;-75
2023/06/13 05:36:45;;;;;;;;;;;16.70;74.80;;;;;;5074769;28;20127;-75
2023/06/13 05:39:12;;;;;;;0.60;0.60;;;16.80;74.80;;;;;;5090539;28;19919;-76
2023/06/13 05:41:39;;;;;;;0.40;0.40;;;16.90;74.80;;;;;;5090874;28;20524;-75
2023/06/13 05:44:05;;;;;;;1.35;0.38;;;17.00;75.40;;;;;;5090878;28;20039;-76
2023/06/13 05:46:31;;;;;;;;;;;17.10;75.30;;;;;;5074759;28;20048;-75
2023/06/13 05:48:56;;;;;;;0.32;0.32;;;17.10;75.20;;;;;;5090339;28;19916;-75
2023/06/13 05:51:22;;;;;;;;;;;17.30;76.90;;;;;;5079365;28;20131;-75
2023/06/13 05:53:48;;;;;;;0.20;0.20;;;17.40;77.20;;;;;;5103444;28;20430;-74
2023/06/13 05:56:14;;;;;;;0.30;0.30;;;17.40;76.00;;;;;;5090681;28;20127;-74
2023/06/13 05:58:40;;;;;;;;;;;17.50;76.80;;;;;;5091713;28;20123;-74
2023/06/13 06:01:06;;;;;;;0.63;0.63;;;17.60;76.10;;;;;;5073674;28;19920;-75
2023/06/13 06:03:33;;;;;;;0.20;0.20;;;17.70;75.80;;;;;;5074370;28;20054;-74
2023/06/13 06:05:59;;;;;;;0.28;0.28;;;17.70;75.10;;;;;;5090986;28;20085;-74
2023/06/13 06:08:25;;;;;;;;;;;17.80;74.80;;;;;;5091155;28;20070;-75
2023/06/13 06:10:51;;;;;;;0.30;0.30;;;17.90;73.90;;;;;;5091180;28;19920;-75
2023/06/13 06:13:17;;;;;;;;;;;18.00;73.10;;;;;;5091233;28;20538;-77
2023/06/13 06:15:42;;;;;;;0.52;0.50;;;18.10;72.20;;;;;;5074318;28;20201;-76
2023/06/13 06:18:08;;;;;;;;;;;18.30;71.80;;;;;;5090740;28;20051;-75
2023/06/13 06:20:34;;;;;;;0.32;0.32;;;18.30;71.10;;;;;;5090389;28;19923;-75
2023/06/13 06:23:00;;;;;;;;;;;18.40;70.10;;;;;;5089871;28;20043;-75
2023/06/13 06:25:25;;;;;;;0.75;0.75;;;18.50;67.80;;;;;;5072991;28;19927;-76
2023/06/13 06:27:51;;;;;;;;;;;18.60;68.10;;;;;;5057333;28;20044;-75
2023/06/13 06:30:17;;;;;;;0.20;0.20;;;18.70;67.30;;;;;;5089842;28;19920;-75
2023/06/13 06:32:43;;;;;;;0.38;0.38;;;18.80;64.90;;;;;;5090303;28;20052;-75
2023/06/13 06:35:13;;;;;;;;;;;18.90;65.90;;;;;;5090094;28;20050;-75
2023/06/13 06:37:39;;;;;;;0.20;0.20;;;18.90;66.80;;;;;;5073347;28;19920;-75
2023/06/13 06:40:05;;;;;;;;;;;19.00;65.10;;;;;;5073412;28;20040;-74
2023/06/13 06:42:31;;;;;;;0.15;0.15;;;19.10;65.40;;;;;;5056378;28;20385;-75
2023/06/13 06:44:56;;;;;;;;;;;19.20;64.50;;;;;;5090292;28;20119;-75
2023/06/13 06:47:22;;;;;;;0.43;0.30;;;19.30;64.20;;;;;;5089498;28;20089;-75
2023/06/13 06:49:48;;;;;;;;;;;19.50;63.20;;;;;;5073222;28;20407;-75
2023/06/13 06:52:13;;;;;;;0.20;0.20;;;19.70;61.40;;;;;;5101048;28;19919;-75
2023/06/13 06:54:39;;;;;;;0.20;0.20;;;19.80;61.10;;;;;;5094576;28;20044;-75
2023/06/13 06:57:05;;;;;;;;;;;20.00;59.50;;;;;;5090207;28;20124;-75
2023/06/13 06:59:31;;;;;;;0.77;0.40;;;20.10;61.00;;;;;;5073294;28;19920;-75
2023/06/13 07:01:57;;;;;;;0.30;0.30;;;20.20;58.20;;;;;;5073348;28;20044;-76
2023/06/13 07:04:22;;;;;;;;;;;20.30;59.90;;;;;;5090679;28;20043;-75
2023/06/13 07:06:48;;;;;;;0.25;0.25;;;20.50;60.40;;;;;;5090850;28;20358;-75
2023/06/13 07:09:14;;;;;;;;;;;20.60;58.00;;;;;;5073035;28;20552;-75
2023/06/13 07:11:40;;;;;;;0.30;0.30;;;20.70;60.30;;;;;;5056023;28;19927;-75
2023/06/13 07:14:06;;;;;;;0.30;0.30;;;20.80;59.90;;;;;;5072240;28;20381;-74
2023/06/13 07:16:31;;;;;;;;;;;21.00;60.40;;;;;;5090112;28;20130;-75
2023/06/13 07:18:57;;;;;;;0.32;0.32;;;21.10;58.30;;;;;;5089717;28;19923;-76
2023/06/13 07:21:22;;;;;;;;;;;21.30;59.50;;;;;;5073483;28;20052;-75
2023/06/13 07:23:48;;;;;;;0.20;0.20;;;21.40;58.40;;;;;;5089797;28;19924;-75
2023/06/13 07:26:14;;;;;;;;;;;21.50;61.20;;;;;;5052268;28;20056;-75
2023/06/13 07:28:40;;;;;;;0.22;0.22;;;21.60;60.80;;;;;;5068771;28;19920;-75
2023/06/13 07:31:06;;;;;;;0.20;0.20;;;21.70;58.20;;;;;;5068803;28;20052;-75
2023/06/13 07:33:31;;;;;;;0.40;0.40;;;21.70;57.70;;;;;;5070143;28;20040;-75
2023/06/13 07:35:57;;;;;;;;;;;21.80;58.40;;;;;;5089294;28;20123;-74
2023/06/13 07:38:24;;;;;;;0.70;0.70;;;21.90;59.60;;;;;;5090363;28;19930;-74
2023/06/13 07:40:50;;;;;;;0.30;0.30;;;22.00;58.40;;;;;;5089046;28;20093;-75
2023/06/13 07:43:16;;;;;;;0.20;0.20;;;22.10;58.90;;;;;;5088449;28;20044;-75
2023/06/13 07:45:42;;;;;;;0.32;0.32;;;22.20;59.20;;;;;;5088769;28;20114;-75
2023/06/13 07:48:07;;;;;;;0.10;0.10;;;22.20;60.20;;;;;;5088452;28;20564;-74
2023/06/13 07:50:34;;;;;;;0.28;0.28;;;22.30;59.90;;;;;;5088558;28;20036;-75
2023/06/13 07:53:00;;;;;;;0.20;0.20;;;22.50;60.10;;;;;;5104607;28;20062;-75
2023/06/13 07:55:26;;;;;;;0.20;0.20;;;22.60;60.40;;;;;;5088304;28;20054;-75
2023/06/13 07:57:52;;;;;;;1.65;0.77;;;22.70;60.80;;;;;;5088770;28;20047;-76
2023/06/13 08:00:18;;;;;;;0.30;0.30;;;22.70;59.60;;;;;;5071706;28;20036;-75
2023/06/13 08:02:45;;;;;;;0.35;0.35;;;22.90;59.60;;;;;;5072142;28;20171;-75
2023/06/13 08:05:15;;;;;;;0.25;0.25;;;23.00;59.70;;;;;;5071464;28;20036;-75
2023/06/13 08:07:42;;;;;;;0.50;0.50;;;23.10;59.70;;;;;;5088571;28;20047;-75
2023/06/13 08:10:08;;;;;;;0.20;0.20;;;23.10;58.40;;;;;;5088180;28;20044;-76
2023/06/13 08:12:34;;;;;;;0.30;0.30;;;23.20;59.40;;;;;;5055058;28;20040;-75
2023/06/13 08:15:00;;;;;;;0.10;0.10;;;23.20;60.30;;;;;;5088607;28;20043;-75
2023/06/13 08:17:26;;;;;;;0.30;0.30;;;23.40;60.40;;;;;;5088083;28;20411;-75
2023/06/13 08:19:52;;;;;;;0.13;0.13;;;23.40;59.90;;;;;;5071820;28;20130;-75
2023/06/13 08:22:18;;;;;;;0.40;0.40;;;23.60;59.00;;;;;;5088061;28;20040;-76
2023/06/13 08:24:45;;;;;;;0.30;0.30;;;23.70;59.50;;;;;;5071081;28;20047;-76
2023/06/13 08:27:11;;;;;;;0.20;0.20;;;23.70;59.00;;;;;;5071658;28;20044;-76
2023/06/13 08:29:37;;;;;;;0.10;0.10;;;23.70;59.30;;;;;;5088551;28;20067;-75
2023/06/13 08:32:03;;;;;;;0.20;0.20;;;23.80;58.80;;;;;;5071775;28;20427;-76
2023/06/13 08:34:30;;;;;;;0.20;0.20;;;23.90;60.50;;;;;;5088188;28;20524;-76
2023/06/13 08:36:56;;;;;;;0.30;0.30;;;24.00;58.80;;;;;;5071994;28;20062;-75
2023/06/13 08:39:22;;;;;;;0.30;0.30;;;24.10;58.90;;;;;;5070887;28;20039;-75
2023/06/13 08:41:49;;;;;;;0.30;0.30;;;24.10;57.50;;;;;;5088206;28;20443;-75
2023/06/13 08:44:16;;;;;;;0.28;0.28;;;24.20;58.40;;;;;;5070860;28;20044;-75
2023/06/13 08:46:42;;;;;;;0.10;0.10;;;24.20;57.20;;;;;;5092088;28;20046;-75
2023/06/13 08:49:09;;;;;;;0.20;0.20;;;24.40;57.70;;;;;;5075150;28;20040;-75
2023/06/13 08:51:36;;;;;;;0.30;0.30;;;24.30;55.40;;;;;;5093406;28;20044;-76
2023/06/13 08:54:04;;;;;;;0.30;0.30;;;24.40;55.10;;;;;;5091961;28;20032;-76
2023/06/13 08:56:38;;;;;;;0.20;0.20;;;24.40;55.10;;;;;;5091477;28;20509;-76
2023/06/13 08:59:41;;;;;;;0.17;0.17;;;24.40;56.70;;;;;;5091886;28;20036;-76
2023/06/13 09:02:08;;;;;;;0.30;0.30;;;24.40;56.30;;;;;;5013770;28;20384;-76
2023/06/13 09:04:36;;;;;;;0.30;0.30;;;24.50;52.00;;;;;;5093998;27;20103;-75
2023/06/13 09:07:03;;;;;;;0.88;0.88;;;24.60;53.00;;;;;;5091932;28;20040;-75
2023/06/13 09:09:30;;;;;;;0.20;0.20;;;24.60;53.20;;;;;;5091797;28;20043;-76
2023/06/13 09:11:58;;;;;;;0.22;0.22;;;24.70;53.60;;;;;;5091548;28;20074;-76
2023/06/13 09:14:24;;;;;;;0.20;0.20;;;24.80;54.80;;;;;;5091208;28;20090;-76
2023/06/13 09:16:53;;;;;;;0.22;0.22;;;24.90;55.00;;;;;;5091343;28;20378;-76
2023/06/13 09:19:19;;;;;;;0.30;0.30;;;25.00;55.90;;;;;;5091706;28;20504;-76
2023/06/13 09:21:44;;;;;;;0.17;0.17;;;25.10;54.50;;;;;;5074581;28;20058;-76
2023/06/13 09:24:12;;;;;;;0.10;0.10;;;24.90;55.90;;;;;;5091764;28;20081;-76
2023/06/13 09:26:42;;;;;;;0.30;0.30;;;24.70;53.90;;;;;;5091356;28;20485;-76
2023/06/13 09:29:08;;;;;;;0.30;0.30;;;24.70;54.20;;;;;;5091393;28;20511;-76
2023/06/13 09:31:38;;;;;;;0.30;0.30;;;24.80;55.30;;;;;;5091075;28;20040;-76
2023/06/13 09:34:06;;;;;;;0.30;0.30;;;24.80;55.50;;;;;;5074242;28;20048;-76
2023/06/13 09:36:35;;;;;;;0.20;0.20;;;24.70;55.80;;;;;;5091209;28;20060;-75
2023/06/13 09:39:03;;;;;;;0.68;0.35;;;24.70;54.40;;;;;;5091986;28;20043;-75
2023/06/13 09:41:31;;;;;;;0.30;0.30;;;24.80;54.80;;;;;;5092509;28;20130;-75
2023/06/13 09:44:02;;;;;;;0.15;0.15;;;24.80;52.20;;;;;;5091743;28;20059;-75
2023/06/13 09:46:28;;;;;;;0.17;0.17;;;24.80;53.00;;;;;;5074207;28;20496;-76
2023/06/13 09:48:53;;;;;;;0.80;0.60;;;24.80;52.40;;;;;;5090951;28;20131;-75
2023/06/13 09:51:21;;;;;;;0.20;0.20;;;24.80;52.40;;;;;;5094903;28;20119;-76
2023/06/13 09:53:47;;;;;;;0.30;0.30;;;24.70;52.50;;;;;;5102972;28;20083;-75
2023/06/13 09:56:13;;;;;;;0.68;0.40;;;24.70;52.90;;;;;;5057362;28;20524;-75
2023/06/13 09:58:40;;;;;;;1.25;1.15;;;24.80;54.70;;;;;;5074135;28;20055;-75
2023/06/13 10:01:11;;;;;;;0.20;0.20;;;25.00;54.50;;;;;;5091807;28;20044;-76
2023/06/13 10:03:37;;;;;;;0.28;0.28;;;25.20;53.80;;;;;;5074887;28;20497;-76
2023/06/13 10:06:06;;;;;;;0.30;0.30;;;25.40;54.10;;;;;;5092163;28;20043;-75
2023/06/13 10:08:34;;;;;;;0.30;0.30;;;25.50;53.90;;;;;;5090375;28;20036;-75
2023/06/13 10:11:06;;;;;;;0.32;0.32;;;25.50;53.70;;;;;;5091339;28;20040;-76
2023/06/13 10:14:07;;;;;;;0.35;0.35;;;25.40;54.80;;;;;;5090721;28;20392;-76
2023/06/13 10:16:37;;;;;;;0.30;0.30;;;25.40;53.80;;;;;;5074582;28;20056;-76
2023/06/13 10:19:05;;;;;;;0.20;0.20;;;25.40;53.80;;;;;;5090468;28;20047;-76
2023/06/13 10:21:35;;;;;;;0.10;0.10;;;25.50;52.70;;;;;;5090495;28;20090;-76
2023/06/13 10:24:02;;;;;;;0.28;0.28;;;25.50;52.90;;;;;;5073066;28;20101;-76
2023/06/13 10:26:43;;;;;;;0.20;0.20;;;25.50;53.70;;;;;;5089413;28;20060;-76
2023/06/13 10:29:23;;;;;;;0.20;0.20;;;25.60;54.40;;;;;;5107934;28;20497;-76
2023/06/13 10:31:48;;;;;;;0.55;0.55;;;25.70;52.40;;;;;;5090744;28;20044;-76
2023/06/13 10:34:17;;;;;;;0.10;0.10;;;25.80;54.20;;;;;;5090893;28;20495;-75
2023/06/13 10:37:12;;;;;;;0.30;0.30;;;25.80;53.50;;;;;;5090215;28;20405;-76
2023/06/13 10:40:05;;;;;;;0.10;0.10;;;25.80;55.40;;;;;;5089893;28;20047;-76
2023/06/13 10:42:39;;;;;;;0.20;0.20;;;25.50;49.00;;;;;;5072633;28;20040;-75
2023/06/13 10:45:11;;;;;;;0.75;0.28;;;25.50;54.20;;;;;;5089867;28;20036;-75
2023/06/13 10:47:39;;;;;;;0.22;0.22;;;25.60;55.20;;;;;;5089454;28;20051;-75
2023/06/13 10:50:08;;;;;;;0.43;0.43;;;25.80;56.70;;;;;;5089855;28;20562;-76
2023/06/13 10:52:34;;;;;;;0.20;0.20;;;25.80;56.80;;;;;;5072698;28;20051;-76
2023/06/13 10:55:01;;;;;;;0.30;0.30;;;26.00;57.10;;;;;;5056345;28;20044;-76
2023/06/13 10:57:47;;;;;;;0.32;0.32;;;26.00;55.90;;;;;;5072857;28;20126;-76
2023/06/13 11:00:33;;;;;;;0.17;0.17;;;25.90;56.80;;;;;;5089466;28;20052;-76
2023/06/13 11:03:12;;;;;;;;;;;25.80;57.20;;;;;;5073284;28;20040;-76
2023/06/13 11:05:44;;;;;;;0.20;0.20;;;25.70;57.50;;;;;;5072110;28;20369;-76
2023/06/13 11:08:24;;;;;;;0.20;0.20;;;25.80;57.50;;;;;;5088857;28;20044;-76
2023/06/13 11:11:04;;;;;;;0.10;0.10;;;25.90;57.20;;;;;;5093955;28;20036;-77
2023/06/13 11:13:34;;;;;;;0.40;0.40;;;26.00;57.00;;;;;;5094746;28;20452;-76
2023/06/13 11:16:40;;;;;;;0.25;0.25;;;26.10;53.80;;;;;;5094339;28;20047;-75
2023/06/13 11:19:30;;;;;;;0.60;0.60;;;25.80;52.90;;;;;;5094182;28;20032;-75
2023/06/13 11:22:09;;;;;;;0.20;0.20;;;25.70;55.00;;;;;;5060327;28;20209;-76
2023/06/13 11:24:36;;;;;;;0.30;0.30;;;25.90;56.20;;;;;;5094061;28;20136;-75
2023/06/13 11:27:12;;;;;;;0.10;0.10;;;26.20;57.00;;;;;;5076767;28;20054;-74
2023/06/13 11:29:45;;;;;;;0.10;0.10;;;26.40;55.60;;;;;;5077889;28;20075;-75
2023/06/13 11:32:12;;;;;;;0.52;0.40;;;26.50;55.30;;;;;;5060714;28;20044;-75
2023/06/13 11:34:51;;;;;;;0.20;0.20;;;26.40;56.10;;;;;;5077168;28;20165;-76
2023/06/13 11:37:56;;;;;;;0.45;0.45;;;26.40;56.60;;;;;;5093429;28;20064;-75
2023/06/13 11:40:42;;;;;;;0.30;0.30;;;26.40;56.40;;;;;;5075844;28;20040;-75
2023/06/13 11:43:08;;;;;;;0.10;0.10;;;26.50;55.90;;;;;;5061832;28;20036;-77
2023/06/13 11:45:36;;;;;;;0.10;0.10;;;26.70;56.20;;;;;;5076893;28;20036;-75
2023/06/13 11:48:11;;;;;;;0.15;0.15;;;26.70;55.30;;;;;;5078220;28;20101;-75
2023/06/13 11:50:46;;;;;;;0.47;0.47;;;26.40;54.50;;;;;;5077969;28;20047;-75
2023/06/13 11:53:13;;;;;;;0.20;0.20;;;26.20;56.60;;;;;;5078589;28;20090;-76
2023/06/13 11:55:40;;;;;;;0.28;0.28;;;26.10;57.00;;;;;;5077463;28;20048;-74
2023/06/13 11:58:07;;;;;;;0.30;0.30;;;26.30;58.00;;;;;;5061012;28;20457;-75
2023/06/13 12:00:57;;;;;;;0.73;0.73;;;26.50;55.10;;;;;;5077861;28;20073;-76
2023/06/13 12:03:29;;;;;;;0.60;0.57;;;26.60;56.40;;;;;;5064561;28;20035;-76
2023/06/13 12:06:09;;;;;;;0.65;0.65;;;26.60;54.60;;;;;;5079683;28;20048;-77
2023/06/13 12:08:36;;;;;;;0.95;0.95;;;26.70;56.40;;;;;;5079235;28;20028;-77
2023/06/13 12:11:07;;;;;;;0.30;0.30;;;27.00;55.60;;;;;;5061957;28;20032;-75
2023/06/13 12:13:33;;;;;;;0.20;0.20;;;27.00;55.30;;;;;;5077981;28;20470;-76
2023/06/13 12:16:04;;;;;;;0.30;0.30;;;27.00;54.20;;;;;;5079696;28;20036;-76
2023/06/13 12:18:33;;;;;;;0.17;0.17;;;26.90;54.90;;;;;;5078702;28;20078;-76
2023/06/13 12:21:09;;;;;;;0.10;0.10;;;26.70;54.70;;;;;;5078017;28;20071;-75
2023/06/13 12:23:38;;;;;;;0.40;0.40;;;26.70;54.90;;;;;;5076719;28;20036;-77
2023/06/13 12:26:05;;;;;;;0.40;0.40;;;27.10;54.80;;;;;;5094859;28;20085;-76
2023/06/13 12:28:33;;;;;;;0.43;0.40;;;27.10;53.50;;;;;;5095724;28;20059;-76
2023/06/13 12:31:05;;;;;;;0.28;0.25;;;26.70;53.80;;;;;;5076932;28;20090;-75
2023/06/13 12:33:41;;;;;;;0.20;0.20;;;26.50;55.10;;;;;;5095324;28;20063;-75
2023/06/13 12:36:09;;;;;;;0.20;0.20;;;26.50;55.30;;;;;;5126768;28;20053;-76
2023/06/13 12:38:44;;;;;;;0.30;0.30;;;26.60;55.40;;;;;;5092922;28;20132;-75
2023/06/13 12:41:17;;;;;;;0.20;0.20;;;26.80;53.30;;;;;;5059441;28;20044;-76
2023/06/13 12:43:45;;;;;;;0.32;0.32;;;27.00;53.60;;;;;;5109769;28;20051;-75
2023/06/13 12:46:13;;;;;;;0.20;0.20;;;27.10;54.30;;;;;;5075258;28;20098;-75
2023/06/13 12:48:39;;;;;;;0.63;0.63;;;27.20;54.20;;;;;;5091752;28;20063;-76
2023/06/13 12:51:07;;;;;;;0.20;0.20;;;27.20;54.30;;;;;;5078515;28;20071;-76
2023/06/13 12:53:34;;;;;;;0.15;0.15;;;27.40;55.90;;;;;;5095532;28;20048;-76
2023/06/13 12:56:02;;;;;;;0.17;0.17;;;27.70;51.80;;;;;;5078727;28;20122;-77
2023/06/13 12:58:45;;;;;;;0.30;0.30;;;27.80;53.10;;;;;;5096221;28;20050;-77
2023/06/13 13:01:22;;;;;;;0.22;0.15;;;27.70;54.10;;;;;;5095750;28;20073;-76
2023/06/13 13:03:51;;;;;;;0.10;0.10;;;27.80;52.90;;;;;;5095345;28;20039;-75
2023/06/13 13:06:17;;;;;;;0.70;0.32;;;28.10;54.60;;;;;;5079277;28;20047;-77
2023/06/13 13:08:47;;;;;;;0.10;0.10;;;28.20;53.60;;;;;;5112615;28;20090;-77